sensor_id;sensor_type;location;lat;lon;timestamp;P1;durP1;ratioP1;P2;durP2;ratioP2
67528;SDS011;54366;51.980;5.856;2023-07-13T00:02:23;3.58;;;1.50;;
67528;SDS011;54366;51.980;5.856;2023-07-13T00:04:57;5.70;;;1.55;;
67528;SDS011;54366;51.980;5.856;2023-07-13T00:07:23;3.92;;;1.50;;
67528;SDS011;54366;51.980;5.856;2023-07-13T00:09:55;4.93;;;1.60;;
67528;SDS011;54366;51.980;5.856;2023-07-13T00:12:34;4.00;;;1.58;;
67528;SDS011;54366;51.980;5.856;2023-07-13T00:15:12;4.25;;;1.63;;
67528;SDS011;54366;51.980;5.856;2023-07-13T00:17:55;4.63;;;1.35;;
67528;SDS011;54366;51.980;5.856;2023-07-13T00:20:28;3.03;;;1.67;;
67528;SDS011;54366;51.980;5.856;2023-07-13T00:23:00;4.20;;;1.48;;
67528;SDS011;54366;51.980;5.856;2023-07-13T00:25:34;3.33;;;1.38;;
67528;SDS011;54366;51.980;5.856;2023-07-13T00:28:07;3.75;;;1.40;;
67528;SDS011;54366;51.980;5.856;2023-07-13T00:30:33;3.08;;;1.20;;
67528;SDS011;54366;51.980;5.856;2023-07-13T00:33:06;3.67;;;1.27;;
67528;SDS011;54366;51.980;5.856;2023-07-13T00:35:39;3.53;;;1.48;;
67528;SDS011;54366;51.980;5.856;2023-07-13T00:38:05;3.38;;;1.30;;
67528;SDS011;54366;51.980;5.856;2023-07-13T00:40:39;4.90;;;1.50;;
67528;SDS011;54366;51.980;5.856;2023-07-13T00:43:16;3.88;;;1.17;;
67528;SDS011;54366;51.980;5.856;2023-07-13T00:46:15;3.92;;;1.27;;
67528;SDS011;54366;51.980;5.856;2023-07-13T00:49:04;5.10;;;1.38;;
67528;SDS011;54366;51.980;5.856;2023-07-13T00:52:02;2.33;;;1.10;;
67528;SDS011;54366;51.980;5.856;2023-07-13T00:54:38;2.88;;;1.20;;
67528;SDS011;54366;51.980;5.856;2023-07-13T00:57:17;4.00;;;1.00;;
67528;SDS011;54366;51.980;5.856;2023-07-13T00:59:46;3.08;;;1.05;;
67528;SDS011;54366;51.980;5.856;2023-07-13T01:02:23;4.78;;;1.30;;
67528;SDS011;54366;51.980;5.856;2023-07-13T01:04:58;3.42;;;1.20;;
67528;SDS011;54366;51.980;5.856;2023-07-13T01:07:31;2.83;;;1.05;;
67528;SDS011;54366;51.980;5.856;2023-07-13T01:10:04;2.75;;;1.20;;
67528;SDS011;54366;51.980;5.856;2023-07-13T01:12:31;3.15;;;0.90;;
67528;SDS011;54366;51.980;5.856;2023-07-13T01:15:04;4.55;;;1.60;;
67528;SDS011;54366;51.980;5.856;2023-07-13T01:17:39;2.40;;;1.15;;
67528;SDS011;54366;51.980;5.856;2023-07-13T01:20:12;2.33;;;1.08;;
67528;SDS011;54366;51.980;5.856;2023-07-13T01:22:45;2.63;;;0.90;;
67528;SDS011;54366;51.980;5.856;2023-07-13T01:25:18;4.15;;;1.00;;
67528;SDS011;54366;51.980;5.856;2023-07-13T01:27:53;4.80;;;1.20;;
67528;SDS011;54366;51.980;5.856;2023-07-13T01:30:26;3.05;;;1.13;;
67528;SDS011;54366;51.980;5.856;2023-07-13T01:32:52;3.80;;;1.25;;
67528;SDS011;54366;51.980;5.856;2023-07-13T01:35:26;3.58;;;1.00;;
67528;SDS011;54366;51.980;5.856;2023-07-13T01:37:59;2.63;;;0.93;;
67528;SDS011;54366;51.980;5.856;2023-07-13T01:40:27;3.38;;;0.95;;
67528;SDS011;54366;51.980;5.856;2023-07-13T01:43:01;1.85;;;1.15;;
67528;SDS011;54366;51.980;5.856;2023-07-13T01:45:40;3.38;;;1.40;;
67528;SDS011;54366;51.980;5.856;2023-07-13T01:48:20;4.13;;;1.38;;
67528;SDS011;54366;51.980;5.856;2023-07-13T01:50:47;1.45;;;0.90;;
67528;SDS011;54366;51.980;5.856;2023-07-13T01:53:21;1.50;;;0.80;;
67528;SDS011;54366;51.980;5.856;2023-07-13T01:55:47;2.50;;;1.17;;
67528;SDS011;54366;51.980;5.856;2023-07-13T01:58:20;2.85;;;1.08;;
67528;SDS011;54366;51.980;5.856;2023-07-13T02:00:53;4.95;;;1.58;;
67528;SDS011;54366;51.980;5.856;2023-07-13T02:03:27;2.03;;;1.13;;
67528;SDS011;54366;51.980;5.856;2023-07-13T02:05:53;2.95;;;1.10;;
67528;SDS011;54366;51.980;5.856;2023-07-13T02:08:27;3.25;;;1.40;;
67528;SDS011;54366;51.980;5.856;2023-07-13T02:11:00;2.90;;;1.45;;
67528;SDS011;54366;51.980;5.856;2023-07-13T02:13:35;3.55;;;1.40;;
67528;SDS011;54366;51.980;5.856;2023-07-13T02:16:08;3.92;;;1.55;;
67528;SDS011;54366;51.980;5.856;2023-07-13T02:18:34;3.78;;;1.42;;
67528;SDS011;54366;51.980;5.856;2023-07-13T02:21:07;4.72;;;1.27;;
67528;SDS011;54366;51.980;5.856;2023-07-13T02:23:33;2.65;;;1.10;;
67528;SDS011;54366;51.980;5.856;2023-07-13T02:26:06;4.28;;;1.80;;
67528;SDS011;54366;51.980;5.856;2023-07-13T02:28:32;4.10;;;1.67;;
67528;SDS011;54366;51.980;5.856;2023-07-13T02:31:09;2.00;;;1.30;;
67528;SDS011;54366;51.980;5.856;2023-07-13T02:33:45;2.92;;;1.60;;
67528;SDS011;54366;51.980;5.856;2023-07-13T02:36:11;3.55;;;1.65;;
67528;SDS011;54366;51.980;5.856;2023-07-13T02:38:47;3.70;;;1.52;;
67528;SDS011;54366;51.980;5.856;2023-07-13T02:41:22;4.35;;;1.30;;
67528;SDS011;54366;51.980;5.856;2023-07-13T02:43:48;6.30;;;1.60;;
67528;SDS011;54366;51.980;5.856;2023-07-13T02:46:29;4.17;;;1.80;;
67528;SDS011;54366;51.980;5.856;2023-07-13T02:49:02;3.78;;;1.83;;
67528;SDS011;54366;51.980;5.856;2023-07-13T02:51:36;2.38;;;1.73;;
67528;SDS011;54366;51.980;5.856;2023-07-13T02:54:09;3.20;;;1.70;;
67528;SDS011;54366;51.980;5.856;2023-07-13T02:56:37;4.65;;;1.88;;
67528;SDS011;54366;51.980;5.856;2023-07-13T02:59:11;4.43;;;1.60;;
67528;SDS011;54366;51.980;5.856;2023-07-13T03:01:44;4.30;;;1.83;;
67528;SDS011;54366;51.980;5.856;2023-07-13T03:04:17;3.17;;;1.85;;
67528;SDS011;54366;51.980;5.856;2023-07-13T03:06:52;4.88;;;1.90;;
67528;SDS011;54366;51.980;5.856;2023-07-13T03:09:18;5.10;;;1.90;;
67528;SDS011;54366;51.980;5.856;2023-07-13T03:11:53;4.70;;;2.00;;
67528;SDS011;54366;51.980;5.856;2023-07-13T03:14:30;4.18;;;1.70;;
67528;SDS011;54366;51.980;5.856;2023-07-13T03:17:05;5.60;;;2.33;;
67528;SDS011;54366;51.980;5.856;2023-07-13T03:19:34;4.05;;;2.08;;
67528;SDS011;54366;51.980;5.856;2023-07-13T03:22:07;4.20;;;1.80;;
67528;SDS011;54366;51.980;5.856;2023-07-13T03:24:41;4.82;;;1.80;;
67528;SDS011;54366;51.980;5.856;2023-07-13T03:27:07;4.82;;;1.92;;
67528;SDS011;54366;51.980;5.856;2023-07-13T03:29:43;4.78;;;1.88;;
67528;SDS011;54366;51.980;5.856;2023-07-13T03:32:17;4.68;;;1.85;;
67528;SDS011;54366;51.980;5.856;2023-07-13T03:34:50;4.65;;;1.88;;
67528;SDS011;54366;51.980;5.856;2023-07-13T03:37:23;4.18;;;1.92;;
67528;SDS011;54366;51.980;5.856;2023-07-13T03:39:56;5.60;;;2.22;;
67528;SDS011;54366;51.980;5.856;2023-07-13T03:42:23;4.93;;;1.88;;
67528;SDS011;54366;51.980;5.856;2023-07-13T03:44:56;6.20;;;2.25;;
67528;SDS011;54366;51.980;5.856;2023-07-13T03:47:31;5.07;;;2.08;;
67528;SDS011;54366;51.980;5.856;2023-07-13T03:50:11;3.22;;;1.92;;
67528;SDS011;54366;51.980;5.856;2023-07-13T03:52:44;6.13;;;2.10;;
67528;SDS011;54366;51.980;5.856;2023-07-13T03:55:15;4.30;;;2.20;;
67528;SDS011;54366;51.980;5.856;2023-07-13T03:57:52;3.83;;;1.80;;
67528;SDS011;54366;51.980;5.856;2023-07-13T04:00:29;4.40;;;1.92;;
67528;SDS011;54366;51.980;5.856;2023-07-13T04:03:02;4.45;;;1.90;;
67528;SDS011;54366;51.980;5.856;2023-07-13T04:05:35;4.68;;;1.90;;
67528;SDS011;54366;51.980;5.856;2023-07-13T04:08:08;5.32;;;2.35;;
67528;SDS011;54366;51.980;5.856;2023-07-13T04:10:34;5.57;;;2.22;;
67528;SDS011;54366;51.980;5.856;2023-07-13T04:13:07;4.05;;;2.40;;
67528;SDS011;54366;51.980;5.856;2023-07-13T04:15:34;4.35;;;2.20;;
67528;SDS011;54366;51.980;5.856;2023-07-13T04:18:07;5.82;;;2.25;;
67528;SDS011;54366;51.980;5.856;2023-07-13T04:20:33;6.40;;;2.40;;
67528;SDS011;54366;51.980;5.856;2023-07-13T04:23:06;4.63;;;2.33;;
67528;SDS011;54366;51.980;5.856;2023-07-13T04:25:39;4.55;;;2.25;;
67528;SDS011;54366;51.980;5.856;2023-07-13T04:28:15;5.60;;;2.40;;
67528;SDS011;54366;51.980;5.856;2023-07-13T04:30:43;5.75;;;2.20;;
67528;SDS011;54366;51.980;5.856;2023-07-13T04:33:16;4.85;;;2.40;;
67528;SDS011;54366;51.980;5.856;2023-07-13T04:35:43;4.78;;;2.45;;
67528;SDS011;54366;51.980;5.856;2023-07-13T04:38:19;4.32;;;2.47;;
67528;SDS011;54366;51.980;5.856;2023-07-13T04:40:45;4.85;;;2.42;;
67528;SDS011;54366;51.980;5.856;2023-07-13T04:43:20;5.50;;;3.08;;
67528;SDS011;54366;51.980;5.856;2023-07-13T04:46:03;4.28;;;2.40;;
67528;SDS011;54366;51.980;5.856;2023-07-13T04:48:41;3.67;;;2.05;;
67528;SDS011;54366;51.980;5.856;2023-07-13T04:51:07;4.75;;;2.63;;
67528;SDS011;54366;51.980;5.856;2023-07-13T04:53:40;5.45;;;2.50;;
67528;SDS011;54366;51.980;5.856;2023-07-13T04:56:06;4.18;;;2.00;;
67528;SDS011;54366;51.980;5.856;2023-07-13T04:58:39;3.70;;;1.92;;
67528;SDS011;54366;51.980;5.856;2023-07-13T05:01:05;7.68;;;3.40;;
67528;SDS011;54366;51.980;5.856;2023-07-13T05:03:39;5.40;;;2.85;;
67528;SDS011;54366;51.980;5.856;2023-07-13T05:06:12;7.47;;;2.72;;
67528;SDS011;54366;51.980;5.856;2023-07-13T05:08:39;6.20;;;2.63;;
67528;SDS011;54366;51.980;5.856;2023-07-13T05:11:12;5.57;;;3.03;;
67528;SDS011;54366;51.980;5.856;2023-07-13T05:13:45;7.85;;;3.50;;
67528;SDS011;54366;51.980;5.856;2023-07-13T05:16:18;7.88;;;3.22;;
67528;SDS011;54366;51.980;5.856;2023-07-13T05:18:52;7.15;;;2.53;;
67528;SDS011;54366;51.980;5.856;2023-07-13T05:21:25;6.45;;;2.47;;
67528;SDS011;54366;51.980;5.856;2023-07-13T05:23:58;6.10;;;2.85;;
67528;SDS011;54366;51.980;5.856;2023-07-13T05:26:24;5.25;;;2.22;;
67528;SDS011;54366;51.980;5.856;2023-07-13T05:28:57;6.00;;;2.90;;
67528;SDS011;54366;51.980;5.856;2023-07-13T05:31:23;7.25;;;3.35;;
67528;SDS011;54366;51.980;5.856;2023-07-13T05:33:56;5.13;;;2.97;;
67528;SDS011;54366;51.980;5.856;2023-07-13T05:36:29;6.97;;;3.15;;
67528;SDS011;54366;51.980;5.856;2023-07-13T05:39:02;7.47;;;3.53;;
67528;SDS011;54366;51.980;5.856;2023-07-13T05:41:36;8.05;;;3.60;;
67528;SDS011;54366;51.980;5.856;2023-07-13T05:44:02;6.00;;;3.30;;
67528;SDS011;54366;51.980;5.856;2023-07-13T05:46:35;8.25;;;4.15;;
67528;SDS011;54366;51.980;5.856;2023-07-13T05:49:08;8.10;;;3.33;;
67528;SDS011;54366;51.980;5.856;2023-07-13T05:51:48;6.60;;;3.60;;
67528;SDS011;54366;51.980;5.856;2023-07-13T05:54:21;11.48;;;4.75;;
67528;SDS011;54366;51.980;5.856;2023-07-13T05:56:54;10.60;;;4.78;;
67528;SDS011;54366;51.980;5.856;2023-07-13T05:59:27;10.30;;;4.05;;
67528;SDS011;54366;51.980;5.856;2023-07-13T06:02:00;9.85;;;4.18;;
67528;SDS011;54366;51.980;5.856;2023-07-13T06:04:33;6.72;;;3.50;;
67528;SDS011;54366;51.980;5.856;2023-07-13T06:06:59;9.68;;;4.90;;
67528;SDS011;54366;51.980;5.856;2023-07-13T06:09:32;10.52;;;5.57;;
67528;SDS011;54366;51.980;5.856;2023-07-13T06:12:05;11.50;;;5.78;;
67528;SDS011;54366;51.980;5.856;2023-07-13T06:14:38;9.80;;;4.93;;
67528;SDS011;54366;51.980;5.856;2023-07-13T06:17:11;9.38;;;5.15;;
67528;SDS011;54366;51.980;5.856;2023-07-13T06:19:37;8.80;;;5.93;;
67528;SDS011;54366;51.980;5.856;2023-07-13T06:22:10;7.68;;;5.60;;
67528;SDS011;54366;51.980;5.856;2023-07-13T06:24:43;14.02;;;7.40;;
67528;SDS011;54366;51.980;5.856;2023-07-13T06:27:16;11.77;;;7.10;;
67528;SDS011;54366;51.980;5.856;2023-07-13T06:29:49;17.23;;;8.18;;
67528;SDS011;54366;51.980;5.856;2023-07-13T06:32:22;15.80;;;9.40;;
67528;SDS011;54366;51.980;5.856;2023-07-13T06:34:55;12.45;;;6.80;;
67528;SDS011;54366;51.980;5.856;2023-07-13T06:37:28;11.05;;;6.90;;
67528;SDS011;54366;51.980;5.856;2023-07-13T06:39:54;10.75;;;6.70;;
67528;SDS011;54366;51.980;5.856;2023-07-13T06:42:27;13.43;;;9.30;;
67528;SDS011;54366;51.980;5.856;2023-07-13T06:44:53;12.35;;;6.80;;
67528;SDS011;54366;51.980;5.856;2023-07-13T06:47:32;13.57;;;7.65;;
67528;SDS011;54366;51.980;5.856;2023-07-13T06:50:05;14.63;;;8.63;;
67528;SDS011;54366;51.980;5.856;2023-07-13T06:52:32;11.68;;;7.97;;
67528;SDS011;54366;51.980;5.856;2023-07-13T06:55:05;16.73;;;10.73;;
67528;SDS011;54366;51.980;5.856;2023-07-13T06:57:32;12.75;;;8.75;;
67528;SDS011;54366;51.980;5.856;2023-07-13T07:00:05;14.65;;;9.68;;
67528;SDS011;54366;51.980;5.856;2023-07-13T07:02:32;14.13;;;9.63;;
67528;SDS011;54366;51.980;5.856;2023-07-13T07:05:05;18.55;;;11.05;;
67528;SDS011;54366;51.980;5.856;2023-07-13T07:07:38;11.05;;;8.23;;
67528;SDS011;54366;51.980;5.856;2023-07-13T07:10:04;19.30;;;10.93;;
67528;SDS011;54366;51.980;5.856;2023-07-13T07:12:38;14.20;;;8.60;;
67528;SDS011;54366;51.980;5.856;2023-07-13T07:15:11;11.52;;;7.30;;
67528;SDS011;54366;51.980;5.856;2023-07-13T07:17:44;9.98;;;7.07;;
67528;SDS011;54366;51.980;5.856;2023-07-13T07:20:17;14.32;;;8.77;;
67528;SDS011;54366;51.980;5.856;2023-07-13T07:22:43;18.85;;;10.52;;
67528;SDS011;54366;51.980;5.856;2023-07-13T07:25:16;12.38;;;8.07;;
67528;SDS011;54366;51.980;5.856;2023-07-13T07:27:49;12.55;;;8.90;;
67528;SDS011;54366;51.980;5.856;2023-07-13T07:30:15;12.60;;;8.68;;
67528;SDS011;54366;51.980;5.856;2023-07-13T07:32:48;12.30;;;7.72;;
67528;SDS011;54366;51.980;5.856;2023-07-13T07:35:21;15.18;;;9.73;;
67528;SDS011;54366;51.980;5.856;2023-07-13T07:37:47;11.52;;;7.70;;
67528;SDS011;54366;51.980;5.856;2023-07-13T07:40:20;11.32;;;8.13;;
67528;SDS011;54366;51.980;5.856;2023-07-13T07:42:53;12.50;;;8.57;;
67528;SDS011;54366;51.980;5.856;2023-07-13T07:45:26;14.02;;;8.63;;
67528;SDS011;54366;51.980;5.856;2023-07-13T07:48:06;15.15;;;9.85;;
67528;SDS011;54366;51.980;5.856;2023-07-13T07:50:39;11.35;;;8.15;;
67528;SDS011;54366;51.980;5.856;2023-07-13T07:53:12;9.50;;;6.47;;
67528;SDS011;54366;51.980;5.856;2023-07-13T07:55:45;13.95;;;8.90;;
67528;SDS011;54366;51.980;5.856;2023-07-13T07:58:18;13.00;;;8.07;;
67528;SDS011;54366;51.980;5.856;2023-07-13T08:00:51;11.18;;;8.07;;
67528;SDS011;54366;51.980;5.856;2023-07-13T08:03:24;12.02;;;8.57;;
67528;SDS011;54366;51.980;5.856;2023-07-13T08:05:52;13.95;;;8.30;;
67528;SDS011;54366;51.980;5.856;2023-07-13T08:08:26;12.25;;;7.28;;
67528;SDS011;54366;51.980;5.856;2023-07-13T08:10:52;10.40;;;7.40;;
67528;SDS011;54366;51.980;5.856;2023-07-13T08:13:25;14.32;;;7.75;;
67528;SDS011;54366;51.980;5.856;2023-07-13T08:15:51;15.23;;;9.80;;
67528;SDS011;54366;51.980;5.856;2023-07-13T08:18:24;15.18;;;9.73;;
67528;SDS011;54366;51.980;5.856;2023-07-13T08:20:57;11.77;;;8.32;;
67528;SDS011;54366;51.980;5.856;2023-07-13T08:23:31;11.90;;;8.60;;
67528;SDS011;54366;51.980;5.856;2023-07-13T08:25:58;13.38;;;8.73;;
67528;SDS011;54366;51.980;5.856;2023-07-13T08:28:31;11.20;;;8.30;;
67528;SDS011;54366;51.980;5.856;2023-07-13T08:31:05;12.85;;;9.48;;
67528;SDS011;54366;51.980;5.856;2023-07-13T08:33:42;15.10;;;9.80;;
67528;SDS011;54366;51.980;5.856;2023-07-13T08:36:15;10.60;;;7.68;;
67528;SDS011;54366;51.980;5.856;2023-07-13T08:38:48;11.18;;;8.23;;
67528;SDS011;54366;51.980;5.856;2023-07-13T08:41:21;14.48;;;9.13;;
67528;SDS011;54366;51.980;5.856;2023-07-13T08:43:49;12.55;;;8.15;;
67528;SDS011;54366;51.980;5.856;2023-07-13T08:46:36;13.18;;;7.70;;
67528;SDS011;54366;51.980;5.856;2023-07-13T08:49:13;11.55;;;7.45;;
67528;SDS011;54366;51.980;5.856;2023-07-13T08:52:03;11.85;;;8.27;;
67528;SDS011;54366;51.980;5.856;2023-07-13T08:54:42;14.55;;;8.70;;
67528;SDS011;54366;51.980;5.856;2023-07-13T08:57:21;11.95;;;7.82;;
67528;SDS011;54366;51.980;5.856;2023-07-13T09:00:00;11.10;;;7.70;;
67528;SDS011;54366;51.980;5.856;2023-07-13T09:02:28;9.40;;;7.65;;
67528;SDS011;54366;51.980;5.856;2023-07-13T09:05:15;8.88;;;5.90;;
67528;SDS011;54366;51.980;5.856;2023-07-13T09:08:05;8.30;;;6.10;;
67528;SDS011;54366;51.980;5.856;2023-07-13T09:11:00;10.15;;;6.30;;
67528;SDS011;54366;51.980;5.856;2023-07-13T09:14:18;8.85;;;6.55;;
67528;SDS011;54366;51.980;5.856;2023-07-13T09:17:10;8.68;;;5.60;;
67528;SDS011;54366;51.980;5.856;2023-07-13T09:19:55;8.15;;;4.60;;
67528;SDS011;54366;51.980;5.856;2023-07-13T09:22:42;8.52;;;4.95;;
67528;SDS011;54366;51.980;5.856;2023-07-13T09:25:23;7.72;;;4.45;;
67528;SDS011;54366;51.980;5.856;2023-07-13T09:28:05;7.63;;;5.03;;
67528;SDS011;54366;51.980;5.856;2023-07-13T09:30:49;8.05;;;4.22;;
67528;SDS011;54366;51.980;5.856;2023-07-13T09:33:30;7.47;;;4.90;;
67528;SDS011;54366;51.980;5.856;2023-07-13T09:35:57;8.18;;;4.05;;
67528;SDS011;54366;51.980;5.856;2023-07-13T09:38:30;7.30;;;3.70;;
67528;SDS011;54366;51.980;5.856;2023-07-13T09:46:44;3.35;;;1.73;;
67528;SDS011;54366;51.980;5.856;2023-07-13T09:49:34;4.88;;;2.20;;
67528;SDS011;54366;51.980;5.856;2023-07-13T09:54:48;7.88;;;3.25;;
67528;SDS011;54366;51.980;5.856;2023-07-13T09:57:22;6.13;;;3.10;;
67528;SDS011;54366;51.980;5.856;2023-07-13T09:59:56;5.50;;;3.42;;
67528;SDS011;54366;51.980;5.856;2023-07-13T10:02:32;5.32;;;3.08;;
67528;SDS011;54366;51.980;5.856;2023-07-13T10:05:10;4.53;;;2.80;;
67528;SDS011;54366;51.980;5.856;2023-07-13T10:07:46;5.60;;;3.15;;
67528;SDS011;54366;51.980;5.856;2023-07-13T10:12:54;5.27;;;3.30;;
67528;SDS011;54366;51.980;5.856;2023-07-13T10:15:27;6.33;;;3.20;;
67528;SDS011;54366;51.980;5.856;2023-07-13T10:17:54;5.43;;;3.10;;
67528;SDS011;54366;51.980;5.856;2023-07-13T10:20:29;10.90;;;3.97;;
67528;SDS011;54366;51.980;5.856;2023-07-13T10:23:04;4.65;;;2.40;;
67528;SDS011;54366;51.980;5.856;2023-07-13T10:25:43;6.30;;;3.03;;
67528;SDS011;54366;51.980;5.856;2023-07-13T10:28:27;7.82;;;3.70;;
67528;SDS011;54366;51.980;5.856;2023-07-13T10:31:04;8.25;;;3.38;;
67528;SDS011;54366;51.980;5.856;2023-07-13T10:33:43;5.15;;;2.92;;
67528;SDS011;54366;51.980;5.856;2023-07-13T10:39:18;4.28;;;2.22;;
67528;SDS011;54366;51.980;5.856;2023-07-13T10:41:53;5.40;;;2.75;;
67528;SDS011;54366;51.980;5.856;2023-07-13T10:44:37;5.18;;;2.40;;
67528;SDS011;54366;51.980;5.856;2023-07-13T10:47:14;3.28;;;2.08;;
67528;SDS011;54366;51.980;5.856;2023-07-13T10:49:57;6.50;;;3.65;;
67528;SDS011;54366;51.980;5.856;2023-07-13T10:52:42;6.78;;;3.20;;
67528;SDS011;54366;51.980;5.856;2023-07-13T10:55:38;5.85;;;2.80;;
67528;SDS011;54366;51.980;5.856;2023-07-13T10:58:33;4.70;;;2.88;;
67528;SDS011;54366;51.980;5.856;2023-07-13T11:01:17;4.32;;;2.40;;
67528;SDS011;54366;51.980;5.856;2023-07-13T11:03:50;4.18;;;2.33;;
67528;SDS011;54366;51.980;5.856;2023-07-13T11:06:34;4.15;;;2.45;;
67528;SDS011;54366;51.980;5.856;2023-07-13T11:09:31;5.93;;;2.60;;
67528;SDS011;54366;51.980;5.856;2023-07-13T11:15:27;3.63;;;2.20;;
67528;SDS011;54366;51.980;5.856;2023-07-13T11:18:22;3.30;;;1.77;;
67528;SDS011;54366;51.980;5.856;2023-07-13T11:20:50;3.67;;;1.90;;
67528;SDS011;54366;51.980;5.856;2023-07-13T11:23:28;4.72;;;1.98;;
67528;SDS011;54366;51.980;5.856;2023-07-13T11:26:03;3.15;;;1.25;;
67528;SDS011;54366;51.980;5.856;2023-07-13T11:28:30;1.75;;;1.25;;
67528;SDS011;54366;51.980;5.856;2023-07-13T11:31:12;2.17;;;0.95;;
67528;SDS011;54366;51.980;5.856;2023-07-13T11:33:51;2.08;;;1.15;;
67528;SDS011;54366;51.980;5.856;2023-07-13T11:36:30;2.03;;;1.00;;
67528;SDS011;54366;51.980;5.856;2023-07-13T11:39:13;3.03;;;1.15;;
67528;SDS011;54366;51.980;5.856;2023-07-13T11:41:51;1.95;;;1.35;;
67528;SDS011;54366;51.980;5.856;2023-07-13T11:44:28;2.40;;;1.30;;
67528;SDS011;54366;51.980;5.856;2023-07-13T11:47:14;3.70;;;1.27;;
67528;SDS011;54366;51.980;5.856;2023-07-13T11:49:58;2.97;;;1.45;;
67528;SDS011;54366;51.980;5.856;2023-07-13T11:52:33;2.77;;;1.40;;
67528;SDS011;54366;51.980;5.856;2023-07-13T11:55:19;3.10;;;1.83;;
67528;SDS011;54366;51.980;5.856;2023-07-13T11:57:56;4.18;;;1.50;;
67528;SDS011;54366;51.980;5.856;2023-07-13T12:00:31;3.13;;;1.50;;
67528;SDS011;54366;51.980;5.856;2023-07-13T12:03:05;4.15;;;1.70;;
67528;SDS011;54366;51.980;5.856;2023-07-13T12:05:38;4.07;;;1.73;;
67528;SDS011;54366;51.980;5.856;2023-07-13T12:08:39;3.08;;;1.88;;
67528;SDS011;54366;51.980;5.856;2023-07-13T12:11:16;3.40;;;1.85;;
67528;SDS011;54366;51.980;5.856;2023-07-13T12:13:50;3.13;;;2.03;;
67528;SDS011;54366;51.980;5.856;2023-07-13T12:16:28;2.42;;;1.48;;
67528;SDS011;54366;51.980;5.856;2023-07-13T12:19:02;3.03;;;1.80;;
67528;SDS011;54366;51.980;5.856;2023-07-13T12:21:32;3.50;;;1.80;;
67528;SDS011;54366;51.980;5.856;2023-07-13T12:24:19;3.72;;;1.85;;
67528;SDS011;54366;51.980;5.856;2023-07-13T12:27:04;2.25;;;1.38;;
67528;SDS011;54366;51.980;5.856;2023-07-13T12:29:37;3.15;;;1.63;;
67528;SDS011;54366;51.980;5.856;2023-07-13T12:32:14;3.57;;;1.50;;
67528;SDS011;54366;51.980;5.856;2023-07-13T12:34:54;2.80;;;1.90;;
67528;SDS011;54366;51.980;5.856;2023-07-13T12:37:28;3.65;;;1.70;;
67528;SDS011;54366;51.980;5.856;2023-07-13T12:40:03;3.35;;;1.50;;
67528;SDS011;54366;51.980;5.856;2023-07-13T12:42:41;3.47;;;1.45;;
67528;SDS011;54366;51.980;5.856;2023-07-13T12:45:21;4.23;;;1.93;;
67528;SDS011;54366;51.980;5.856;2023-07-13T12:48:12;3.00;;;1.55;;
67528;SDS011;54366;51.980;5.856;2023-07-13T12:50:48;3.00;;;1.65;;
67528;SDS011;54366;51.980;5.856;2023-07-13T12:53:23;2.67;;;1.85;;
67528;SDS011;54366;51.980;5.856;2023-07-13T12:56:14;2.22;;;1.15;;
67528;SDS011;54366;51.980;5.856;2023-07-13T12:58:57;1.77;;;1.08;;
67528;SDS011;54366;51.980;5.856;2023-07-13T13:01:34;3.40;;;1.88;;
67528;SDS011;54366;51.980;5.856;2023-07-13T13:04:02;4.25;;;1.90;;
67528;SDS011;54366;51.980;5.856;2023-07-13T13:06:39;3.03;;;1.60;;
67528;SDS011;54366;51.980;5.856;2023-07-13T13:09:11;2.50;;;1.30;;
67528;SDS011;54366;51.980;5.856;2023-07-13T13:11:45;1.83;;;1.38;;
67528;SDS011;54366;51.980;5.856;2023-07-13T13:14:11;2.88;;;1.40;;
67528;SDS011;54366;51.980;5.856;2023-07-13T13:16:48;1.90;;;1.40;;
67528;SDS011;54366;51.980;5.856;2023-07-13T13:19:27;3.70;;;1.67;;
67528;SDS011;54366;51.980;5.856;2023-07-13T13:22:01;1.65;;;1.33;;
67528;SDS011;54366;51.980;5.856;2023-07-13T13:24:34;3.07;;;1.50;;
67528;SDS011;54366;51.980;5.856;2023-07-13T13:27:11;2.70;;;1.53;;
67528;SDS011;54366;51.980;5.856;2023-07-13T13:29:55;1.88;;;1.30;;
67528;SDS011;54366;51.980;5.856;2023-07-13T13:32:21;2.40;;;1.33;;
67528;SDS011;54366;51.980;5.856;2023-07-13T13:35:18;3.63;;;1.40;;
67528;SDS011;54366;51.980;5.856;2023-07-13T13:37:52;2.67;;;1.27;;
67528;SDS011;54366;51.980;5.856;2023-07-13T13:40:32;2.00;;;1.30;;
67528;SDS011;54366;51.980;5.856;2023-07-13T13:42:59;2.30;;;1.40;;
67528;SDS011;54366;51.980;5.856;2023-07-13T13:45:32;1.25;;;0.80;;
67528;SDS011;54366;51.980;5.856;2023-07-13T13:48:18;2.07;;;1.33;;
67528;SDS011;54366;51.980;5.856;2023-07-13T13:50:54;1.58;;;1.15;;
67528;SDS011;54366;51.980;5.856;2023-07-13T13:53:27;1.20;;;0.93;;
67528;SDS011;54366;51.980;5.856;2023-07-13T13:56:00;1.73;;;1.10;;
67528;SDS011;54366;51.980;5.856;2023-07-13T13:58:33;1.45;;;1.30;;
67528;SDS011;54366;51.980;5.856;2023-07-13T14:01:00;1.48;;;1.38;;
67528;SDS011;54366;51.980;5.856;2023-07-13T14:03:32;2.53;;;1.23;;
67528;SDS011;54366;51.980;5.856;2023-07-13T14:05:59;3.97;;;1.50;;
67528;SDS011;54366;51.980;5.856;2023-07-13T14:08:32;3.53;;;1.48;;
67528;SDS011;54366;51.980;5.856;2023-07-13T14:11:05;1.27;;;1.13;;
67528;SDS011;54366;51.980;5.856;2023-07-13T14:13:35;2.30;;;1.17;;
67528;SDS011;54366;51.980;5.856;2023-07-13T14:16:12;1.88;;;1.42;;
67528;SDS011;54366;51.980;5.856;2023-07-13T14:18:49;2.55;;;1.30;;
67528;SDS011;54366;51.980;5.856;2023-07-13T14:21:23;1.80;;;1.20;;
67528;SDS011;54366;51.980;5.856;2023-07-13T14:23:56;2.42;;;1.23;;
67528;SDS011;54366;51.980;5.856;2023-07-13T14:26:23;1.77;;;1.10;;
67528;SDS011;54366;51.980;5.856;2023-07-13T14:28:57;1.98;;;1.10;;
67528;SDS011;54366;51.980;5.856;2023-07-13T14:31:25;4.95;;;1.90;;
67528;SDS011;54366;51.980;5.856;2023-07-13T14:34:01;1.98;;;1.30;;
67528;SDS011;54366;51.980;5.856;2023-07-13T14:36:36;3.17;;;1.40;;
67528;SDS011;54366;51.980;5.856;2023-07-13T14:39:17;2.95;;;1.30;;
67528;SDS011;54366;51.980;5.856;2023-07-13T14:41:52;2.17;;;1.02;;
67528;SDS011;54366;51.980;5.856;2023-07-13T14:44:28;3.88;;;1.08;;
67528;SDS011;54366;51.980;5.856;2023-07-13T14:47:08;1.65;;;1.02;;
67528;SDS011;54366;51.980;5.856;2023-07-13T14:49:48;1.42;;;0.75;;
67528;SDS011;54366;51.980;5.856;2023-07-13T14:52:22;0.75;;;0.73;;
67528;SDS011;54366;51.980;5.856;2023-07-13T14:54:49;1.80;;;1.00;;
67528;SDS011;54366;51.980;5.856;2023-07-13T14:57:22;0.90;;;0.77;;
67528;SDS011;54366;51.980;5.856;2023-07-13T14:59:55;2.92;;;1.10;;
67528;SDS011;54366;51.980;5.856;2023-07-13T15:05:18;2.10;;;1.33;;
67528;SDS011;54366;51.980;5.856;2023-07-13T15:07:56;1.55;;;0.80;;
67528;SDS011;54366;51.980;5.856;2023-07-13T15:10:34;1.83;;;1.05;;
67528;SDS011;54366;51.980;5.856;2023-07-13T15:13:21;1.40;;;0.80;;
67528;SDS011;54366;51.980;5.856;2023-07-13T15:15:55;2.05;;;1.15;;
67528;SDS011;54366;51.980;5.856;2023-07-13T15:18:28;1.90;;;1.00;;
67528;SDS011;54366;51.980;5.856;2023-07-13T15:21:01;1.25;;;1.00;;
67528;SDS011;54366;51.980;5.856;2023-07-13T15:23:29;1.27;;;0.93;;
67528;SDS011;54366;51.980;5.856;2023-07-13T15:26:02;1.77;;;1.10;;
67528;SDS011;54366;51.980;5.856;2023-07-13T15:28:35;2.07;;;1.00;;
67528;SDS011;54366;51.980;5.856;2023-07-13T15:31:17;1.17;;;0.80;;
67528;SDS011;54366;51.980;5.856;2023-07-13T15:33:56;1.52;;;1.00;;
67528;SDS011;54366;51.980;5.856;2023-07-13T15:36:23;1.05;;;0.95;;
67528;SDS011;54366;51.980;5.856;2023-07-13T15:39:00;2.28;;;1.30;;
67528;SDS011;54366;51.980;5.856;2023-07-13T15:41:27;2.50;;;1.20;;
67528;SDS011;54366;51.980;5.856;2023-07-13T15:44:00;1.90;;;1.02;;
67528;SDS011;54366;51.980;5.856;2023-07-13T15:46:57;1.20;;;0.90;;
67528;SDS011;54366;51.980;5.856;2023-07-13T15:49:32;2.50;;;1.15;;
67528;SDS011;54366;51.980;5.856;2023-07-13T15:52:19;1.50;;;1.20;;